createdAt,value
2018-12-17T00:00:35.522Z,102661.70
2018-12-17T00:03:04.551Z,102665.46
2018-12-17T00:05:33.570Z,102663.06
2018-12-17T00:08:02.597Z,102660.28
2018-12-17T00:10:32.517Z,102666.53
2018-12-17T00:13:01.134Z,102641.81
2018-12-17T00:15:30.146Z,102658.79
2018-12-17T00:17:59.250Z,102655.23
2018-12-17T00:20:28.126Z,102664.11
2018-12-17T00:22:57.211Z,102665.97
2018-12-17T00:25:25.829Z,102664.45
2018-12-17T00:27:54.876Z,102657.23
2018-12-17T00:30:23.822Z,102655.57
2018-12-17T00:32:52.784Z,102655.57
2018-12-17T00:35:21.482Z,102665.19
2018-12-17T00:37:50.187Z,102654.19
2018-12-17T00:40:19.385Z,102661.64
2018-12-17T00:42:48.042Z,102658.69
2018-12-17T00:45:16.985Z,102657.95
2018-12-17T00:47:45.707Z,102658.45
2018-12-17T00:50:14.812Z,102659.84
2018-12-17T00:52:43.682Z,102649.56
2018-12-17T00:55:12.516Z,102649.23
2018-12-17T00:57:41.559Z,102639.04
2018-12-17T01:00:11.131Z,102640.80
2018-12-17T01:02:40.614Z,102642.16
2018-12-17T01:05:10.073Z,102633.17
2018-12-17T01:07:38.783Z,102631.42
2018-12-17T01:10:09.215Z,102631.93
2018-12-17T01:12:38.080Z,102620.48
2018-12-17T01:15:08.651Z,102625.30
2018-12-17T01:17:37.399Z,102614.42
2018-12-17T01:20:07.342Z,102615.83
2018-12-17T01:22:35.979Z,102626.23
2018-12-17T01:25:05.505Z,102634.47
2018-12-17T01:27:34.391Z,102629.04
2018-12-17T01:30:03.295Z,102624.37
2018-12-17T01:32:32.260Z,102621.38
2018-12-17T01:35:01.217Z,102620.08
2018-12-17T01:37:29.932Z,102617.50
2018-12-17T01:39:58.615Z,102612.33
2018-12-17T01:42:27.626Z,102604.20
2018-12-17T01:44:56.784Z,102601.34
2018-12-17T01:47:25.827Z,102608.64
2018-12-17T01:49:54.658Z,102591.44
2018-12-17T01:52:23.360Z,102594.96
2018-12-17T01:54:52.788Z,102591.16
2018-12-17T01:57:21.719Z,102588.71
2018-12-17T01:59:51.023Z,102583.05
2018-12-17T02:02:19.915Z,102591.78
2018-12-17T02:04:48.828Z,102583.16
2018-12-17T02:07:17.649Z,102578.86
2018-12-17T02:09:46.399Z,102577.22
2018-12-17T02:12:15.486Z,102584.13
2018-12-17T02:14:44.350Z,102585.87
2018-12-17T02:17:13.078Z,102588.52
2018-12-17T02:19:41.832Z,102586.39
2018-12-17T02:22:10.625Z,102585.94
2018-12-17T02:24:39.681Z,102583.42
2018-12-17T02:27:08.736Z,102583.48
2018-12-17T02:29:37.718Z,102582.97
2018-12-17T02:32:06.427Z,102571.77
2018-12-17T02:34:35.353Z,102566.50
2018-12-17T02:37:04.173Z,102566.53
2018-12-17T02:39:32.855Z,102562.30
2018-12-17T02:42:01.485Z,102560.72
2018-12-17T02:44:30.465Z,102553.77
2018-12-17T02:46:59.330Z,102546.08
2018-12-17T02:49:28.790Z,102549.08
2018-12-17T02:51:57.832Z,102550.80
2018-12-17T02:54:26.675Z,102545.20
2018-12-17T02:56:55.606Z,102542.72
2018-12-17T02:59:24.730Z,102537.12
2018-12-17T03:01:53.700Z,102529.85
2018-12-17T03:04:22.756Z,102532.05
2018-12-17T03:06:51.573Z,102530.75
2018-12-17T03:09:20.497Z,102529.82
2018-12-17T03:11:49.592Z,102528.56
2018-12-17T03:14:18.277Z,102533.73
2018-12-17T03:16:47.176Z,102521.62
2018-12-17T03:19:15.895Z,102513.47
2018-12-17T03:21:44.711Z,102389.33
2018-12-17T03:24:13.644Z,102508.30
2018-12-17T03:26:42.379Z,102519.48
2018-12-17T03:29:11.475Z,102501.82
2018-12-17T03:31:40.532Z,102494.48
2018-12-17T03:34:09.746Z,102494.01
2018-12-17T03:36:38.672Z,102495.27
2018-12-17T03:39:07.711Z,102498.33
2018-12-17T03:41:36.605Z,102492.32
2018-12-17T03:44:05.266Z,102490.58
2018-12-17T03:46:34.032Z,102480.66
2018-12-17T03:49:02.938Z,102477.66
2018-12-17T03:51:31.689Z,102478.08
2018-12-17T03:54:00.672Z,102474.66
2018-12-17T03:56:29.818Z,102467.30
2018-12-17T03:58:59.614Z,102464.29
2018-12-17T04:01:28.848Z,102464.71
2018-12-17T04:03:57.888Z,102462.16
2018-12-17T04:06:26.667Z,102468.11
2018-12-17T04:08:55.731Z,102459.09
2018-12-17T04:11:24.463Z,102458.67
2018-12-17T04:13:53.385Z,102460.47
2018-12-17T04:16:23.270Z,102442.38
2018-12-17T04:18:52.468Z,102437.61
2018-12-17T04:21:21.582Z,102435.44
2018-12-17T04:23:50.334Z,102421.59
2018-12-17T04:26:19.802Z,102427.66
2018-12-17T04:28:48.884Z,102420.36
2018-12-17T04:31:17.896Z,102425.50
2018-12-17T04:33:46.986Z,102422.50
2018-12-17T04:36:15.821Z,102426.37
2018-12-17T04:38:45.037Z,102413.45
2018-12-17T04:41:14.141Z,102407.83
2018-12-17T04:43:43.170Z,102400.08
2018-12-17T04:46:12.612Z,102400.98
2018-12-17T04:48:41.547Z,102392.33
2018-12-17T04:51:11.082Z,102410.42
2018-12-17T04:53:40.223Z,102396.23
2018-12-17T04:56:09.003Z,102390.64
2018-12-17T04:58:37.765Z,102394.09
2018-12-17T05:01:06.738Z,102385.47
2018-12-17T05:03:35.517Z,102393.70
2018-12-17T05:06:04.414Z,102382.07
2018-12-17T05:08:33.480Z,102386.84
2018-12-17T05:11:02.211Z,102381.67
2018-12-17T05:13:32.187Z,102382.14
2018-12-17T05:16:01.039Z,102385.20
2018-12-17T05:18:29.838Z,102374.44
2018-12-17T05:20:59.086Z,102371.85
2018-12-17T05:23:28.022Z,102365.88
2018-12-17T05:25:57.151Z,102362.48
2018-12-17T05:28:26.455Z,102358.56
2018-12-17T05:30:55.200Z,102352.94
2018-12-17T05:33:24.873Z,102352.53
2018-12-17T05:35:53.661Z,102350.80
2018-12-17T05:38:23.261Z,102353.85
2018-12-17T05:40:53.190Z,102347.84
2018-12-17T05:43:22.183Z,102344.38
2018-12-17T05:45:51.271Z,102342.25
2018-12-17T05:48:20.203Z,102333.67
2018-12-17T05:50:49.039Z,102328.94
2018-12-17T05:53:17.831Z,102327.20
2018-12-17T05:55:46.564Z,102332.41
2018-12-17T05:58:15.690Z,102322.55
2018-12-17T06:00:44.914Z,102325.22
2018-12-17T06:03:13.783Z,102324.27
2018-12-17T06:05:42.761Z,102319.62
2018-12-17T06:08:13.305Z,102319.19
2018-12-17T06:10:42.314Z,102316.22
2018-12-17T06:13:11.545Z,102321.41
2018-12-17T06:15:40.398Z,102318.86
2018-12-17T06:18:09.262Z,102317.17
2018-12-17T06:20:38.240Z,102295.03
2018-12-17T06:23:07.421Z,102313.73
2018-12-17T06:25:36.661Z,102319.74
2018-12-17T06:28:05.690Z,102319.77
2018-12-17T06:30:34.722Z,102317.22
2018-12-17T06:33:03.692Z,102321.06
2018-12-17T06:35:33.033Z,102303.39
2018-12-17T06:38:01.959Z,102311.16
2018-12-17T06:40:31.120Z,102304.22
2018-12-17T06:43:00.370Z,102297.80
2018-12-17T06:45:29.291Z,102293.47
2018-12-17T06:47:58.860Z,102302.88
2018-12-17T06:50:27.780Z,102306.78
2018-12-17T06:52:56.831Z,102295.16
2018-12-17T06:55:25.627Z,102300.79
2018-12-17T06:57:54.847Z,102294.25
2018-12-17T07:00:23.962Z,102296.44
2018-12-17T07:02:52.770Z,102296.03
2018-12-17T07:05:21.615Z,102293.41
2018-12-17T07:07:50.666Z,102288.60
2018-12-17T07:10:19.811Z,102289.09
2018-12-17T07:12:48.873Z,102290.78
2018-12-17T07:15:17.713Z,102284.37
2018-12-17T07:17:46.488Z,102281.39
2018-12-17T07:20:15.319Z,102284.83
2018-12-17T07:22:44.238Z,102289.17
2018-12-17T07:25:13.100Z,102286.63
2018-12-17T07:27:42.553Z,102285.31
2018-12-17T07:30:11.637Z,102288.33
2018-12-17T07:32:40.842Z,102283.59
2018-12-17T07:35:09.607Z,102276.28
2018-12-17T07:37:38.832Z,102277.16
2018-12-17T07:40:08.846Z,102281.01
2018-12-17T07:42:37.643Z,102271.98
2018-12-17T07:45:07.452Z,102275.86
2018-12-17T07:47:36.555Z,102272.83
2018-12-17T07:50:06.544Z,102264.22
2018-12-17T07:52:35.414Z,102265.92
2018-12-17T07:55:04.374Z,102271.98
2018-12-17T07:57:33.281Z,102265.52
2018-12-17T08:00:02.512Z,102266.38
2018-12-17T08:02:31.455Z,102269.39
2018-12-17T08:05:00.785Z,102268.55
2018-12-17T08:07:29.987Z,102268.95
2018-12-17T08:09:58.905Z,102263.33
2018-12-17T08:12:28.019Z,102266.78
2018-12-17T08:14:57.019Z,102267.67
2018-12-17T08:17:26.054Z,102272.42
2018-12-17T08:19:55.393Z,102274.19
2018-12-17T08:22:24.748Z,102270.30
2018-12-17T08:24:53.871Z,102268.14
2018-12-17T08:27:22.909Z,102271.60
2018-12-17T08:29:52.292Z,102268.57
2018-12-17T08:32:21.614Z,102263.41
2018-12-17T08:34:50.332Z,102253.48
2018-12-17T08:37:19.543Z,102255.23
2018-12-17T08:39:48.458Z,102253.91
2018-12-17T08:42:17.575Z,102256.48
2018-12-17T08:44:46.548Z,102268.59
2018-12-17T08:47:15.363Z,102265.16
2018-12-17T08:49:44.073Z,102260.45
2018-12-17T08:52:13.252Z,102265.58
2018-12-17T08:54:42.261Z,102274.63
2018-12-17T08:57:11.138Z,102263.80
2018-12-17T08:59:40.084Z,102261.28
2018-12-17T09:02:08.794Z,102265.62
2018-12-17T09:04:37.667Z,102270.31
2018-12-17T09:07:07.012Z,102270.81
2018-12-17T09:09:36.526Z,102269.95
2018-12-17T09:12:05.421Z,102266.06
2018-12-17T09:14:34.495Z,102258.71
2018-12-17T09:17:03.500Z,102268.66
2018-12-17T09:19:32.263Z,102266.92
2018-12-17T09:22:01.160Z,102265.23
2018-12-17T09:24:30.012Z,102269.12
2018-12-17T09:26:58.991Z,102267.36
2018-12-17T09:29:27.939Z,102263.47
2018-12-17T09:31:56.858Z,102258.79
2018-12-17T09:34:26.063Z,102250.20
2018-12-17T09:36:54.757Z,102243.69
2018-12-17T09:39:23.889Z,102246.76
2018-12-17T09:41:52.779Z,102241.97
2018-12-17T09:44:21.934Z,102241.55
2018-12-17T09:46:50.960Z,102234.67
2018-12-17T09:49:20.179Z,102232.09
2018-12-17T09:51:48.851Z,102228.64
2018-12-17T09:54:17.734Z,102226.09
2018-12-17T09:56:46.390Z,102226.09
2018-12-17T09:59:15.739Z,102220.94
2018-12-17T10:01:44.569Z,102218.77
2018-12-17T10:04:13.198Z,102222.67
2018-12-17T10:06:42.191Z,102213.64
2018-12-17T10:09:11.110Z,102211.08
2018-12-17T10:11:39.978Z,102205.00
2018-12-17T10:14:09.084Z,102204.20
2018-12-17T10:16:38.109Z,102208.09
2018-12-17T10:19:07.064Z,102201.66
2018-12-17T10:21:36.232Z,102196.06
2018-12-17T10:24:04.969Z,102198.67
2018-12-17T10:26:34.737Z,102191.78
2018-12-17T10:29:03.704Z,102195.23
2018-12-17T10:31:32.527Z,102189.20
2018-12-17T10:34:01.284Z,102186.63
2018-12-17T10:36:30.105Z,102183.63
2018-12-17T10:38:59.118Z,102181.04
2018-12-17T10:41:28.112Z,102179.30
2018-12-17T10:43:56.907Z,102175.00
2018-12-17T10:46:26.373Z,102171.11
2018-12-17T10:48:55.106Z,102167.67
2018-12-17T10:51:23.824Z,102171.55
2018-12-17T10:53:52.787Z,102167.22
2018-12-17T10:56:21.580Z,102167.22
2018-12-17T10:58:50.518Z,102174.12
2018-12-17T11:01:24.604Z,102171.10
2018-12-17T11:03:58.291Z,102171.53
2018-12-17T11:06:27.662Z,102181.46
2018-12-17T11:08:56.781Z,102170.23
2018-12-17T11:11:25.830Z,102202.63
2018-12-17T11:13:55.336Z,102169.36
2018-12-17T11:16:24.218Z,102167.22
2018-12-17T11:18:53.311Z,102175.41
2018-12-17T11:21:22.365Z,102169.37
2018-12-17T11:23:51.404Z,102178.00
2018-12-17T11:26:20.451Z,102171.95
2018-12-17T11:28:49.854Z,102165.05
2018-12-17T11:31:18.539Z,102164.20
2018-12-17T11:33:47.315Z,102171.11
2018-12-17T11:36:16.521Z,102170.25
2018-12-17T11:38:45.605Z,102171.12
2018-12-17T11:41:14.836Z,102163.36
2018-12-17T11:43:44.196Z,102163.78
2018-12-17T11:46:13.460Z,102162.05
2018-12-17T11:48:42.548Z,102166.36
2018-12-17T11:51:11.454Z,102170.25
2018-12-17T11:53:40.216Z,102165.48
2018-12-17T11:56:09.302Z,102162.48
2018-12-17T11:58:38.071Z,102164.20
2018-12-17T12:01:08.571Z,102149.53
2018-12-17T12:03:40.401Z,102157.30
2018-12-17T12:06:13.951Z,102163.80
2018-12-17T12:08:40.191Z,102159.47
2018-12-17T12:11:09.784Z,102155.14
2018-12-17T12:13:38.815Z,102153.42
2018-12-17T12:16:08.162Z,102158.17
2018-12-17T12:18:36.981Z,102153.42
2018-12-17T12:21:05.766Z,102158.58
2018-12-17T12:23:35.299Z,102155.13
2018-12-17T12:26:04.298Z,102154.70
2018-12-17T12:28:33.249Z,102158.59
2018-12-17T12:31:02.425Z,102153.41
2018-12-17T12:33:31.669Z,102152.98
2018-12-17T12:36:00.520Z,102150.42
2018-12-17T12:38:29.455Z,102147.40
2018-12-17T12:40:58.356Z,102154.30
2018-12-17T12:43:27.078Z,102143.50
2018-12-17T12:45:56.169Z,102137.44
2018-12-17T12:48:25.361Z,102141.34
2018-12-17T12:50:54.521Z,102141.74
2018-12-17T12:53:23.691Z,102153.37
2018-12-17T12:55:52.891Z,102151.67
2018-12-17T12:58:21.850Z,102148.61
2018-12-17T13:00:51.034Z,102149.06
2018-12-17T13:03:20.039Z,102142.55
2018-12-17T13:05:48.879Z,102143.88
2018-12-17T13:08:17.873Z,102145.18
2018-12-17T13:10:46.603Z,102145.18
2018-12-17T13:13:15.537Z,102144.75
2018-12-17T13:15:44.479Z,102135.69
2018-12-17T13:18:13.415Z,102130.03
2018-12-17T13:20:42.135Z,102141.30
2018-12-17T13:23:11.219Z,102135.23
2018-12-17T13:25:43.311Z,102149.03
2018-12-17T13:28:13.166Z,102148.61
2018-12-17T13:30:42.501Z,102151.20
2018-12-17T13:33:11.863Z,102147.75
2018-12-17T13:35:40.635Z,102149.05
2018-12-17T13:38:09.410Z,102150.33
2018-12-17T13:40:38.267Z,102153.78
2018-12-17T13:43:07.208Z,102149.45
2018-12-17T13:45:36.130Z,102155.04
2018-12-17T13:48:05.250Z,102149.40
2018-12-17T13:50:36.415Z,102156.73
2018-12-17T13:53:11.014Z,102152.39
2018-12-17T13:55:40.294Z,102160.16
2018-12-17T13:58:09.288Z,102155.41
2018-12-17T14:00:38.297Z,102151.05
2018-12-17T14:03:08.176Z,102158.34
2018-12-17T14:05:37.206Z,102154.07
2018-12-17T14:08:06.140Z,102161.41
2018-12-17T14:10:40.005Z,102163.58
2018-12-17T14:13:08.695Z,102166.19
2018-12-17T14:15:42.929Z,102173.55
2018-12-17T14:18:17.533Z,102167.48
2018-12-17T14:20:51.638Z,102169.64
2018-12-17T14:23:20.607Z,102175.27
2018-12-17T14:25:49.653Z,102178.30
2018-12-17T14:28:18.672Z,102175.72
2018-12-17T14:30:47.407Z,102179.16
2018-12-17T14:33:16.138Z,102178.29
2018-12-17T14:35:50.122Z,102178.26
2018-12-17T14:38:19.232Z,102176.55
2018-12-17T14:40:48.314Z,102178.27
2018-12-17T14:43:17.100Z,102176.09
2018-12-17T14:45:46.224Z,102186.89
2018-12-17T14:48:15.132Z,102183.84
2018-12-17T14:50:44.059Z,102185.14
2018-12-17T14:53:12.981Z,102185.54
2018-12-17T14:55:42.886Z,102188.55
2018-12-17T14:58:11.529Z,102190.27
2018-12-17T15:00:40.425Z,102180.79
2018-12-17T15:03:09.122Z,102182.91
2018-12-17T15:05:38.022Z,102187.62
2018-12-17T15:08:06.764Z,102185.84
2018-12-17T15:10:35.980Z,102190.98
2018-12-17T15:13:04.962Z,102188.34
2018-12-17T15:15:33.743Z,102193.02
2018-12-17T15:18:02.682Z,102202.45
2018-12-17T15:20:31.812Z,102202.81
2018-12-17T15:23:00.745Z,102198.86
2018-12-17T15:25:29.482Z,102200.56
2018-12-17T15:27:58.262Z,102206.58
2018-12-17T15:30:27.203Z,102203.06
2018-12-17T15:32:55.919Z,102203.03
2018-12-17T15:35:24.890Z,102206.00
2018-12-17T15:37:54.154Z,102207.21
2018-12-17T15:40:23.057Z,102214.02
2018-12-17T15:42:52.062Z,102210.94
2018-12-17T15:45:20.805Z,102213.42
2018-12-17T15:47:49.668Z,102212.08
2018-12-17T15:50:18.536Z,102205.04
2018-12-17T15:52:47.667Z,102210.11
2018-12-17T15:55:17.024Z,102207.41
2018-12-17T15:57:46.178Z,102201.73
2018-12-17T16:00:15.272Z,102208.51
2018-12-17T16:02:44.239Z,102209.70
2018-12-17T16:05:13.043Z,102208.33
2018-12-17T16:07:42.153Z,102211.23
2018-12-17T16:10:11.242Z,102212.41
2018-12-17T16:12:40.425Z,102208.87
2018-12-17T16:15:10.003Z,102209.66
2018-12-17T16:17:38.807Z,102203.16
2018-12-17T16:20:07.644Z,102203.94
2018-12-17T16:22:36.428Z,102206.45
2018-12-17T16:25:06.288Z,102205.11
2018-12-17T16:27:35.387Z,102213.63
2018-12-17T16:30:05.885Z,102217.88
2018-12-17T16:32:34.521Z,102219.08
2018-12-17T16:35:03.862Z,102219.05
2018-12-17T16:37:32.916Z,102227.13
2018-12-17T16:40:02.034Z,102222.34
2018-12-17T16:42:31.095Z,102230.42
2018-12-17T16:44:59.981Z,102235.03
2018-12-17T16:47:29.107Z,102231.58
2018-12-17T16:49:58.083Z,102233.64
2018-12-17T16:52:26.829Z,102246.42
2018-12-17T16:54:55.729Z,102244.19
2018-12-17T16:57:24.727Z,102258.30
2018-12-17T16:59:53.720Z,102261.63
2018-12-17T17:02:23.531Z,102267.97
2018-12-17T17:04:52.572Z,102261.83
2018-12-17T17:07:21.699Z,102260.39
2018-12-17T17:09:50.370Z,102263.23
2018-12-17T17:12:19.542Z,102267.85
2018-12-17T17:14:48.472Z,102273.83
2018-12-17T17:17:17.302Z,102269.41
2018-12-17T17:19:50.741Z,102264.63
2018-12-17T17:22:17.227Z,102265.38
2018-12-17T17:24:46.411Z,102262.77
2018-12-17T17:27:15.261Z,102267.45
2018-12-17T17:29:44.701Z,102272.55
2018-12-17T17:32:13.729Z,102275.84
2018-12-17T17:34:43.626Z,102272.31
2018-12-17T17:37:12.642Z,102277.33
2018-12-17T17:39:41.444Z,102273.39
2018-12-17T17:42:10.576Z,102251.42
2018-12-17T17:44:39.911Z,102280.53
2018-12-17T17:47:09.089Z,102288.65
2018-12-17T17:49:38.186Z,102287.70
2018-12-17T17:52:07.282Z,102295.19
2018-12-17T17:54:36.265Z,102292.90
2018-12-17T17:57:05.264Z,102295.38
2018-12-17T17:59:34.521Z,102299.97
2018-12-17T18:02:03.346Z,102296.02
2018-12-17T18:04:33.061Z,102299.37
2018-12-17T18:07:02.867Z,102301.08
2018-12-17T18:09:32.199Z,102303.13
2018-12-17T18:12:01.119Z,102302.17
2018-12-17T18:14:29.832Z,102316.36
2018-12-17T18:16:58.794Z,102311.17
2018-12-17T18:19:27.824Z,102310.80
2018-12-17T18:21:56.656Z,102305.25
2018-12-17T18:24:25.810Z,102301.84
2018-12-17T18:26:55.081Z,102300.56
2018-12-17T18:29:24.040Z,102305.25
2018-12-17T18:31:52.962Z,102301.81
2018-12-17T18:34:22.845Z,102304.37
2018-12-17T18:36:52.089Z,102305.56
2018-12-17T18:39:21.649Z,102317.40
2018-12-17T18:41:50.626Z,102319.42
2018-12-17T18:44:19.540Z,102319.36
2018-12-17T18:46:48.647Z,102325.80
2018-12-17T18:49:17.625Z,102329.74
2018-12-17T18:51:46.968Z,102331.98
2018-12-17T18:54:16.308Z,102332.46
2018-12-17T18:56:45.174Z,102344.58
2018-12-17T18:59:14.309Z,102347.66
2018-12-17T19:01:43.624Z,102342.67
2018-12-17T19:04:12.392Z,102347.12
2018-12-17T19:06:41.318Z,102348.09
2018-12-17T19:09:10.536Z,102347.77
2018-12-17T19:11:39.432Z,102353.42
2018-12-17T19:14:08.576Z,102351.30
2018-12-17T19:16:37.579Z,102348.65
2018-12-17T19:19:06.635Z,102349.94
2018-12-17T19:21:35.703Z,102354.75
2018-12-17T19:24:04.662Z,102360.86
2018-12-17T19:26:34.495Z,102354.53
2018-12-17T19:29:03.399Z,102361.55
2018-12-17T19:31:34.718Z,102366.25
2018-12-17T19:34:04.927Z,102366.84
2018-12-17T19:36:33.953Z,102366.27
2018-12-17T19:39:03.029Z,102368.47
2018-12-17T19:41:32.182Z,102375.91
2018-12-17T19:44:01.374Z,102382.44
2018-12-17T19:46:30.228Z,102387.50
2018-12-17T19:48:59.026Z,102395.03
2018-12-17T19:51:28.574Z,102394.45
2018-12-17T19:53:57.586Z,102393.39
2018-12-17T19:56:27.653Z,102390.17
2018-12-17T19:58:56.828Z,102391.13
2018-12-17T20:01:26.294Z,102392.63
2018-12-17T20:03:55.392Z,102394.97
2018-12-17T20:06:24.551Z,102392.84
2018-12-17T20:08:54.850Z,102390.73
2018-12-17T20:11:24.274Z,102390.77
2018-12-17T20:13:53.497Z,102384.46
2018-12-17T20:16:22.486Z,102384.58
2018-12-17T20:18:51.556Z,102382.16
2018-12-17T20:21:22.018Z,102386.91
2018-12-17T20:23:51.390Z,102395.91
2018-12-17T20:26:21.314Z,102392.52
2018-12-17T20:28:50.853Z,102392.22
2018-12-17T20:31:19.699Z,102397.48
2018-12-17T20:33:49.572Z,102393.63
2018-12-17T20:36:19.541Z,102392.08
2018-12-17T20:38:49.999Z,102387.45
2018-12-17T20:41:19.924Z,102388.36
2018-12-17T20:43:49.416Z,102389.73
2018-12-17T20:46:18.806Z,102385.38
2018-12-17T20:48:48.352Z,102390.63
2018-12-17T20:51:17.816Z,102380.86
2018-12-17T20:53:47.762Z,102383.44
2018-12-17T20:56:16.966Z,102388.21
2018-12-17T20:58:46.405Z,102390.52
2018-12-17T21:01:16.540Z,102389.27
2018-12-17T21:03:46.769Z,102388.92
2018-12-17T21:06:15.796Z,102395.02
2018-12-17T21:08:44.707Z,102393.34
2018-12-17T21:11:13.842Z,102389.48
2018-12-17T21:13:42.675Z,102393.38
2018-12-17T21:16:11.775Z,102395.89
2018-12-17T21:19:43.027Z,102393.77
2018-12-17T21:22:11.865Z,102396.62
2018-12-17T21:24:40.846Z,102398.25
2018-12-17T21:27:09.799Z,102396.23
2018-12-17T21:29:38.541Z,102396.45
2018-12-17T21:32:07.587Z,102398.23
2018-12-17T21:34:37.159Z,102398.72
2018-12-17T21:37:06.096Z,102394.43
2018-12-17T21:39:35.324Z,102399.66
2018-12-17T21:42:04.383Z,102400.11
2018-12-17T21:44:33.487Z,102403.10
2018-12-17T21:47:02.787Z,102397.04
2018-12-17T21:49:31.950Z,102400.07
2018-12-17T21:52:00.885Z,102403.52
2018-12-17T21:54:29.844Z,102400.14
2018-12-17T21:56:58.946Z,102410.91
2018-12-17T21:59:28.185Z,102416.56
2018-12-17T22:01:57.493Z,102416.17
2018-12-17T22:04:26.592Z,102405.05
2018-12-17T22:06:55.952Z,102404.70
2018-12-17T22:09:24.865Z,102405.60
2018-12-17T22:11:54.267Z,102403.92
2018-12-17T22:14:23.428Z,102404.41
2018-12-17T22:16:52.748Z,102405.25
2018-12-17T22:19:22.057Z,102402.73
2018-12-17T22:21:51.822Z,102398.05
2018-12-17T22:24:20.598Z,102406.16
2018-12-17T22:26:49.675Z,102403.99
2018-12-17T22:29:18.843Z,102398.48
2018-12-17T22:31:47.768Z,102402.34
2018-12-17T22:34:16.937Z,102407.47
2018-12-17T22:36:45.962Z,102411.41
2018-12-17T22:39:15.098Z,102407.55
2018-12-17T22:41:44.641Z,102413.54
2018-12-17T22:44:13.809Z,102412.86
2018-12-17T22:46:43.932Z,102409.95
2018-12-17T22:49:13.369Z,102411.37
2018-12-17T22:51:42.771Z,102414.40
2018-12-17T22:54:12.603Z,102412.39
2018-12-17T22:56:41.539Z,102417.55
2018-12-17T22:59:10.777Z,102413.64
2018-12-17T23:01:39.955Z,102411.39
2018-12-17T23:04:08.798Z,102416.20
2018-12-17T23:06:37.776Z,102417.97
2018-12-17T23:09:07.424Z,102425.78
2018-12-17T23:11:52.278Z,102424.06
2018-12-17T23:14:32.561Z,102426.37
2018-12-17T23:17:12.931Z,102420.91
2018-12-17T23:19:44.350Z,102425.23
2018-12-17T23:22:13.789Z,102427.84
2018-12-17T23:24:42.882Z,102423.59
2018-12-17T23:27:12.212Z,102417.20
2018-12-17T23:29:41.072Z,102416.33
2018-12-17T23:32:09.851Z,102418.95
2018-12-17T23:34:38.877Z,102421.16
2018-12-17T23:37:07.700Z,102417.30
2018-12-17T23:39:36.388Z,102416.95
2018-12-17T23:42:05.566Z,102419.14
2018-12-17T23:44:37.291Z,102420.94
2018-12-17T23:47:06.370Z,102417.48
2018-12-17T23:49:35.332Z,102420.94
2018-12-17T23:52:04.510Z,102342.80
2018-12-17T23:54:33.522Z,102419.64
2018-12-17T23:57:02.263Z,102416.27
2018-12-17T23:59:31.368Z,102412.31
